Aeroporto :
LOGIN :

Iscrizione | Disclaimer

   EN    FR    IT 

 










Sommario :    VFR   VFR Marginale   IFR   IFR Intensivo   IFR Molto Intensivo
Visibilità : 
Base nubi : 
>= 8 km
>= 3000ft
5 / 8 km
1000 / 3000 ft
1500m / 5 km
500 / 1000 ft
800 / 1500m
200 / 500 ft
< 800m
< 200 ft
Simboli :   Temporali  Nebbia  Neve Forte  Precipitazioni Forti  Vento > 20 kt
SIGMETs :   Varie  Temporali  Ghiacco  Turbolenza  Onda orograficha  Ceneri Vulcaniche






- Altitudine del aeroporto : 74 ft
- Codice IATA : EIN


EHEH - Eindhoven

ULTIMO METAR :
  • 141255Z AUTO 21016G29KT 180V250 9999 -DZ SCT049 BKN054 BKN064 07/03 Q0992 BLU 25015G28KT 9999 SCT025 BKN040 TEMPO SCT012 SCT018CB BKN020

METARs OBSOLETI :
  • 141225Z AUTO 22017KT 200V260 9999 FEW054 SCT062 OVC095 07/03 Q0992 BLU 25015G28KT 9999 SCT025 BKN040 TEMPO SCT012 SCT018CB BKN020
  • 141155Z AUTO 23013KT 200V270 9999 SCT092 BKN099 OVC110 07/03 Q0992 BLU 25015G28KT 9999 SCT025 BKN040
  • 141125Z AUTO 24014KT 200V280 9999 SCT042 SCT047 BKN098 07/02 Q0991 BLU 25015G28KT 9999 SCT025 BKN040
  • 141055Z AUTO 24015KT 200V280 9999 FEW032 OVC130 07/03 Q0991 BLU 25015G28KT 9999 SCT025 BKN040
  • 141041Z AUTO 24015KT 200V270 9999 FEW025 SCT029 BKN033 07/04 Q0991 BLU 25015G28KT 9999 SCT025 BKN040
  • 141035Z AUTO 24015KT 210V280 9999 SCT024 BKN027 BKN035 07/04 Q0991 WHT 25015G28KT 9999 SCT025 BKN040
  • 141025Z AUTO 24013KT 210V290 9999 FEW019 SCT035 OVC041 06/04 Q0991 BLU 25015G28KT 9999 SCT025 BKN040
  • 141003Z AUTO 25014KT 210V300 9999 FEW022 SCT025 BKN043 06/04 Q0990 BLU 25015G28KT 9999 SCT025 BKN040

TAF TAF EHEH
Valido dal 14 a 12 ore il 15 a 18 ore UTC


141133Z 1412/1518 24017G32KT 9999 SCT035
TEMPO 1413/1417 SCT012 BKN015 SCT020CB
PROB30
TEMPO 1413/1417 25020G37KT 4000 RA SHRAGS SCT008 BKN012 SCT018CB
BECMG 1416/1419 20012KT
TEMPO 1503/1506 24017G35KT SCT012 BKN015 OVC030
PROB30
TEMPO 1503/1506 15017G40KT 4000 RA SHRAGS SCT008 SCT015CB BKN020



MetMap, La meteo Aeronautica in un colpo d'occhio ! - Copyright ORBIFLY Dicembre 2007 - Disclaimer

ORBIFLY MET'MAP TEAM :

Programmazione e sviluppo : Alexandra Zaïnal
Concezione : Baudouin d'Aumeries
Aiuto per la programmazione : Marc-Olivier Méhu
Supporto tecnico e logistico : Manuel Goepfert
Aiuto per la traduzione : Arnaldo La Scala

Contatto : metmap@orbifly.com




FONTI E CREDITI :

   NOAA